Latest Weather Observations for Lord Howe Island Windy Point

IDN60801

Issued at 12:35 pm EST Sunday 20 April 2014 (issued every 30 minutes, with the page automatically refreshed every 10 minutes)

About weather observations | Map of weather stations | Latest weather observations for NSW | Other Formats
Station Details ID: 200715 Name: LORD HOWE ISLAND WINDY POINT Lat: -31.54 Lon: 159.07 Height: 4.0 m
Data from the previous 72 hours. | See also: Recent months for locations in New South Wales
Date/Time
EST
Temp
°C
App
Temp
°C
Dew
Point
Rel
Hum
%
Delta-T
°C
Wind Press
QNH
hPa
Press
MSL
hPa
Rain
since 9 am
mm
Dir
 
Spd
km/h
Gust
km/h
Spd
kts
Gust
kts
20/12:30pm - - - - - SW 22 30 12 16 - - -
20/12:00pm - - - - - SW 26 30 14 16 - - -
20/11:30am - - - - - SSW 26 30 14 16 - - -
20/11:00am - - - - - SSW 30 33 16 18 - - -
20/10:30am - - - - - SSW 22 28 12 15 - - -
20/10:00am - - - - - WSW 13 20 7 11 - - -
20/09:30am - - - - - W 17 22 9 12 - - -
20/09:00am - - - - - WSW 20 24 11 13 - - -
20/08:30am - - - - - WSW 17 20 9 11 - - -
20/08:00am - - - - - SW 17 20 9 11 - - -
20/07:30am - - - - - SSW 24 28 13 15 - - -
20/07:00am - - - - - SW 28 39 15 21 - - -
20/06:30am - - - - - SW 24 30 13 16 - - -
20/06:00am - - - - - WSW 22 28 12 15 - - -
20/05:30am - - - - - SW 17 24 9 13 - - -
20/05:00am - - - - - SW 19 20 10 11 - - -
20/04:30am - - - - - SSW 22 28 12 15 - - -
20/04:00am - - - - - SW 32 39 17 21 - - -
20/03:30am - - - - - SSW 26 32 14 17 - - -
20/03:00am - - - - - SSW 35 48 19 26 - - -
20/02:58am - - - - - SSW 33 48 18 26 - - -
20/02:30am - - - - - WSW 24 30 13 16 - - -
20/02:00am - - - - - WSW 22 28 12 15 - - -
20/01:30am - - - - - WSW 22 28 12 15 - - -
20/01:00am - - - - - SW 24 30 13 16 - - -
20/12:30am - - - - - SW 20 26 11 14 - - -
20/12:00am - - - - - SSW 9 17 5 9 - - -
 
Date/Time
EST
Temp
°C
App
Temp
°C
Dew
Point
Rel
Hum
%
Delta-T
°C
Wind Press
QNH
hPa
Press
MSL
hPa
Rain
since 9 am
mm
Dir
 
Spd
km/h
Gust
km/h
Spd
kts
Gust
kts
19/11:30pm - - - - - S 11 24 6 13 - - -
19/11:00pm - - - - - SSW 22 28 12 15 - - -
19/10:30pm - - - - - SSW 22 28 12 15 - - -
19/10:00pm - - - - - SW 20 28 11 15 - - -
19/09:30pm - - - - - SW 24 30 13 16 - - -
19/09:00pm - - - - - E 6 9 3 5 - - -
19/08:30pm - - - - - SSE 9 11 5 6 - - -
19/08:13pm - - - - - SW 28 43 15 23 - - -
19/08:00pm - - - - - S 9 15 5 8 - - -
19/07:30pm - - - - - S 13 20 7 11 - - -
19/07:00pm - - - - - SSW 22 30 12 16 - - -
19/06:30pm - - - - - SSW 20 30 11 16 - - -
19/06:00pm - - - - - SW 24 28 13 15 - - -
19/05:30pm - - - - - SW 26 32 14 17 - - -
19/05:00pm - - - - - SW 26 32 14 17 - - -
19/04:30pm - - - - - SW 28 33 15 18 - - -
19/04:00pm - - - - - SW 30 35 16 19 - - -
19/03:30pm - - - - - WSW 24 30 13 16 - - -
19/03:00pm - - - - - WSW 33 35 18 19 - - -
19/02:37pm - - - - - W 52 56 28 30 - - -
19/02:30pm - - - - - WNW 46 54 25 29 - - -
19/02:13pm - - - - - WNW 39 48 21 26 - - -
19/02:00pm - - - - - W 33 50 18 27 - - -
19/01:53pm - - - - - NW 30 54 16 29 - - -
19/01:49pm - - - - - NW 24 28 13 15 - - -
19/01:30pm - - - - - WNW 39 46 21 25 - - -
19/01:00pm - - - - - WNW 35 46 19 25 - - -
19/12:30pm - - - - - WNW 41 48 22 26 - - -
19/12:00pm - - - - - WNW 35 44 19 24 - - -
19/11:30am - - - - - WNW 33 43 18 23 - - -
19/11:00am - - - - - WNW 35 39 19 21 - - -
19/10:30am - - - - - WNW 35 41 19 22 - - -
19/10:00am - - - - - WNW 33 39 18 21 - - -
19/09:30am - - - - - WNW 35 43 19 23 - - -
19/09:00am - - - - - WNW 35 41 19 22 - - -
19/08:30am - - - - - WNW 33 41 18 22 - - -
19/08:00am - - - - - WNW 32 35 17 19 - - -
19/07:30am - - - - - W 30 35 16 19 - - -
19/07:29am - - - - - W 28 35 15 19 - - -
19/07:00am - - - - - SW 15 17 8 9 - - -
19/06:30am - - - - - SSW 33 44 18 24 - - -
19/06:26am - - - - - SSW 39 44 21 24 - - -
19/06:00am - - - - - WNW 33 41 18 22 - - -
19/05:30am - - - - - W 37 44 20 24 - - -
19/05:00am - - - - - W 41 48 22 26 - - -
19/04:30am - - - - - W 39 44 21 24 - - -
19/04:00am - - - - - W 37 44 20 24 - - -
19/03:35am - - - - - WNW 30 41 16 22 - - -
19/03:30am - - - - - SSW 13 22 7 12 - - -
19/03:00am - - - - - W 35 43 19 23 - - -
19/02:30am - - - - - W 28 33 15 18 - - -
19/02:00am - - - - - W 30 35 16 19 - - -
19/01:30am - - - - - W 28 35 15 19 - - -
19/01:00am - - - - - W 30 37 16 20 - - -
19/12:30am - - - - - W 32 39 17 21 - - -
19/12:00am - - - - - W 30 33 16 18 - - -
 
Date/Time
EST
Temp
°C
App
Temp
°C
Dew
Point
Rel
Hum
%
Delta-T
°C
Wind Press
QNH
hPa
Press
MSL
hPa
Rain
since 9 am
mm
Dir
 
Spd
km/h
Gust
km/h
Spd
kts
Gust
kts
18/11:30pm - - - - - WSW 32 35 17 19 - - -
18/11:00pm - - - - - W 32 37 17 20 - - -
18/10:30pm - - - - - W 33 37 18 20 - - -
18/10:00pm - - - - - WSW 30 37 16 20 - - -
18/09:30pm - - - - - WSW 28 35 15 19 - - -
18/09:00pm - - - - - WSW 37 44 20 24 - - -
18/08:30pm - - - - - WSW 37 44 20 24 - - -
18/08:00pm - - - - - WSW 35 41 19 22 - - -
18/07:30pm - - - - - WSW 33 43 18 23 - - -
18/07:00pm - - - - - WSW 35 44 19 24 - - -
18/06:30pm - - - - - WSW 37 46 20 25 - - -
18/06:00pm - - - - - W 39 46 21 25 - - -
18/05:30pm - - - - - WSW 37 44 20 24 - - -
18/05:00pm - - - - - WSW 35 43 19 23 - - -
18/04:30pm - - - - - WSW 35 43 19 23 - - -
18/04:00pm - - - - - WSW 37 44 20 24 - - -
18/03:30pm - - - - - WSW 41 50 22 27 - - -
18/03:02pm - - - - - SW 37 56 20 30 - - -
18/03:00pm - - - - - SW 39 56 21 30 - - -
18/02:54pm - - - - - SW 37 56 20 30 - - -
18/02:30pm - - - - - WSW 41 50 22 27 - - -
18/02:00pm - - - - - WSW 41 50 22 27 - - -
18/01:30pm - - - - - WSW 39 48 21 26 - - -
18/01:00pm - - - - - WSW 41 50 22 27 - - -
18/12:30pm - - - - - WSW 39 50 21 27 - - -
18/12:00pm - - - - - WSW 41 50 22 27 - - -
18/11:30am - - - - - WSW 41 50 22 27 - - -
18/11:00am - - - - - W 41 52 22 28 - - -
18/10:30am - - - - - WSW 39 46 21 25 - - -
18/10:22am - - - - - WSW 28 44 15 24 - - -
18/10:00am - - - - - WSW 22 26 12 14 - - -
18/09:30am - - - - - WSW 41 67 22 36 - - -
18/09:26am - - - - - WSW 37 59 20 32 - - -
18/09:00am - - - - - SW 35 44 19 24 - - -
18/08:30am - - - - - WSW 35 43 19 23 - - -
18/08:00am - - - - - WSW 41 48 22 26 - - -
18/07:30am - - - - - SW 39 50 21 27 - - -
18/07:00am - - - - - SW 37 43 20 23 - - -
18/06:30am - - - - - SW 37 44 20 24 - - -
18/06:00am - - - - - WSW 46 54 25 29 - - -
18/05:30am - - - - - SW 41 54 22 29 - - -
18/05:00am - - - - - SW 43 56 23 30 - - -
18/04:30am - - - - - SW 41 50 22 27 - - -
18/04:00am - - - - - SW 41 54 22 29 - - -
18/03:30am - - - - - SW 43 52 23 28 - - -
18/03:00am - - - - - WSW 44 56 24 30 - - -
18/02:30am - - - - - WSW 41 48 22 26 - - -
18/02:00am - - - - - SW 44 54 24 29 - - -
18/01:30am - - - - - SW 39 50 21 27 - - -
18/01:00am - - - - - WSW 48 57 26 31 - - -
18/12:30am - - - - - WSW 50 61 27 33 - - -
18/12:00am - - - - - SW 43 52 23 28 - - -
 
Date/Time
EST
Temp
°C
App
Temp
°C
Dew
Point
Rel
Hum
%
Delta-T
°C
Wind Press
QNH
hPa
Press
MSL
hPa
Rain
since 9 am
mm
Dir
 
Spd
km/h
Gust
km/h
Spd
kts
Gust
kts
17/11:30pm - - - - - SW 44 54 24 29 - - -
17/11:00pm - - - - - SW 46 56 25 30 - - -
17/10:30pm - - - - - SW 46 56 25 30 - - -
17/10:00pm - - - - - SW 44 56 24 30 - - -
17/09:30pm - - - - - SW 39 46 21 25 - - -
17/09:00pm - - - - - SW 43 52 23 28 - - -
17/08:30pm - - - - - SW 50 59 27 32 - - -
17/08:00pm - - - - - SW 44 56 24 30 - - -
17/07:30pm - - - - - SW 43 57 23 31 - - -
17/07:00pm - - - - - SW 46 59 25 32 - - -
17/06:30pm - - - - - SW 46 56 25 30 - - -
17/06:00pm - - - - - SW 48 61 26 33 - - -
17/05:30pm - - - - - SW 46 57 25 31 - - -
17/05:00pm - - - - - SSW 46 57 25 31 - - -
17/04:30pm - - - - - SW 44 56 24 30 - - -
17/04:00pm - - - - - SSW 44 54 24 29 - - -
17/03:30pm - - - - - SW 44 56 24 30 - - -
17/03:00pm - - - - - SW 46 52 25 28 - - -
17/02:30pm - - - - - SSW 43 61 23 33 - - -
17/02:27pm - - - - - SSW 39 59 21 32 - - -
17/02:00pm - - - - - SW 39 50 21 27 - - -
17/01:30pm - - - - - SW 39 52 21 28 - - -
17/01:00pm - - - - - SW 39 48 21 26 - - -

Other Formats:

Comma delimited format used in spreadsheet applications
http://www.bom.gov.au/fwo/IDN60801/IDN60801.95995.axf

JavaScript Object Notation format (JSON) in row-major order
http://www.bom.gov.au/fwo/IDN60801/IDN60801.95995.json